createdAt,value
2018-05-03T00:00:04.830Z,66.6
2018-05-03T00:15:04.360Z,65.4
2018-05-03T00:30:04.705Z,64.6
2018-05-03T00:45:05.665Z,64.6
2018-05-03T01:00:05.499Z,64.3
2018-05-03T01:15:04.533Z,65
2018-05-03T01:30:05.362Z,66.5
2018-05-03T01:45:05.139Z,67.4
2018-05-03T02:00:05.290Z,67.1
2018-05-03T02:15:05.228Z,67.4
2018-05-03T02:30:05.433Z,68.3
2018-05-03T02:45:05.249Z,70.2
2018-05-03T03:00:04.741Z,69.6
2018-05-03T03:15:04.719Z,70.2
2018-05-03T03:30:05.256Z,70.9
2018-05-03T03:45:04.998Z,71.3
2018-05-03T04:00:04.490Z,70.8
2018-05-03T04:15:04.854Z,71.2
2018-05-03T04:30:05.047Z,70.5
2018-05-03T04:45:05.013Z,71.4
2018-05-03T05:00:05.100Z,71.2
2018-05-03T05:15:05.093Z,71.4
2018-05-03T05:30:04.792Z,71
2018-05-03T05:45:04.752Z,71.6
2018-05-03T06:00:04.830Z,70.7
2018-05-03T06:15:04.771Z,70.1
2018-05-03T06:30:05.003Z,70.3
2018-05-03T06:45:04.478Z,69.7
2018-05-03T07:00:04.509Z,69.4
2018-05-03T07:15:04.479Z,69.1
2018-05-03T07:30:04.726Z,69.3
2018-05-03T07:45:05.307Z,69
2018-05-03T08:00:05.237Z,68.5
2018-05-03T08:15:05.085Z,68
2018-05-03T08:30:04.857Z,69.9
2018-05-03T08:45:04.850Z,68.9
2018-05-03T09:00:04.358Z,66.4
2018-05-03T09:15:04.817Z,65.4
2018-05-03T09:30:04.976Z,64.1
2018-05-03T09:45:04.417Z,63.5
2018-05-03T10:00:04.469Z,62
2018-05-03T10:15:04.881Z,61.1
2018-05-03T10:30:05.208Z,59.9
2018-05-03T11:00:04.748Z,58.1
2018-05-03T11:15:10.191Z,58.2
2018-05-03T11:30:04.308Z,56.9
2018-05-03T11:45:05.213Z,56.8
2018-05-03T12:00:04.761Z,55.7
2018-05-03T12:15:05.221Z,55.4
2018-05-03T12:30:04.424Z,55.4
2018-05-03T12:45:04.896Z,55
2018-05-03T13:00:04.368Z,55.9
2018-05-03T13:15:04.373Z,55.5
2018-05-03T13:30:04.532Z,54.6
2018-05-03T13:45:04.472Z,55
2018-05-03T14:00:04.475Z,55.2
2018-05-03T14:15:04.452Z,55.4
2018-05-03T14:30:04.678Z,55
2018-05-03T14:45:04.603Z,54.9
2018-05-03T15:00:04.579Z,54.7
2018-05-03T15:15:04.540Z,54.6
2018-05-03T15:30:04.728Z,55.1
2018-05-03T15:45:05.214Z,55.3
2018-05-03T16:00:05.203Z,55
2018-05-03T16:15:04.760Z,53.8
2018-05-03T16:30:04.630Z,54.8
2018-05-03T16:45:04.715Z,54.8
2018-05-03T17:00:05.352Z,55.1
2018-05-03T17:15:05.137Z,56.5
2018-05-03T17:30:04.917Z,57.2
2018-05-03T17:45:05.013Z,57.9
2018-05-03T18:00:04.842Z,57.7
2018-05-03T18:15:04.775Z,57.3
2018-05-03T18:30:05.295Z,57.8
2018-05-03T18:45:04.856Z,58
2018-05-03T19:00:04.464Z,58
2018-05-03T19:15:04.450Z,58
2018-05-03T19:30:04.819Z,57.8
2018-05-03T19:45:04.913Z,57.5
2018-05-03T20:00:04.445Z,57.2
2018-05-03T20:15:05.048Z,57.4
2018-05-03T20:30:05.462Z,56.6
2018-05-03T20:45:04.965Z,56.7
2018-05-03T21:00:04.452Z,56.8
2018-05-03T21:15:05.132Z,57
2018-05-03T21:30:04.909Z,57.2
2018-05-03T21:45:05.023Z,57.1
2018-05-03T22:00:04.575Z,57.1
2018-05-03T22:15:04.570Z,57
2018-05-03T22:30:04.665Z,58.1
2018-05-03T22:45:04.773Z,59.4
2018-05-03T23:00:05.484Z,59.2
2018-05-03T23:15:05.087Z,60.3
2018-05-03T23:30:05.470Z,60.8
2018-05-03T23:45:04.672Z,60.3
